Time;durP1;ratioP1;P1;durP2;ratioP2;P2;SDS_P1;SDS_P2;PMS_P1;PMS_P2;Temp;Humidity;BMP_temperature;BMP_pressure;BME280_temperature;BME280_humidity;BME280_pressure;Samples;Min_cycle;Max_cycle;Signal;HPM_P1;HPM_P2
2022/07/12 00:00:39;;;;;;;10.32;6.55;;;10.70;99.90;;;;;;5033568;28;20022;-67
2022/07/12 00:03:06;;;;;;;9.93;5.18;;;10.80;99.90;;;;;;5034999;28;20047;-65
2022/07/12 00:05:33;;;;;;;12.43;5.47;;;11.00;99.90;;;;;;5029980;28;20018;-65
2022/07/12 00:08:01;;;;;;;9.57;4.47;;;11.20;99.90;;;;;;5036321;28;20049;-68
2022/07/12 00:10:28;;;;;;;7.75;4.60;;;11.20;99.90;;;;;;5031409;28;20082;-67
2022/07/12 00:12:55;;;;;;;7.88;3.90;;;11.20;99.90;;;;;;5029585;28;20018;-67
2022/07/12 00:15:22;;;;;;;6.97;3.97;;;11.10;99.90;;;;;;5033886;28;20141;-66
2022/07/12 00:17:50;;;;;;;11.45;4.45;;;11.10;99.90;;;;;;5023897;28;20025;-66
2022/07/12 00:20:18;;;;;;;13.57;3.78;;;11.40;99.90;;;;;;5036843;28;20066;-66
2022/07/12 00:22:46;;;;;;;9.82;4.32;;;11.60;99.90;;;;;;5033928;28;20049;-66
2022/07/12 00:25:13;;;;;;;4.35;3.13;;;11.80;99.90;;;;;;5038244;28;20018;-65
2022/07/12 00:27:41;;;;;;;6.28;3.15;;;11.80;99.90;;;;;;5024956;28;20034;-66
2022/07/12 00:30:09;;;;;;;8.60;3.80;;;12.00;99.90;;;;;;5024169;28;20037;-66
2022/07/12 00:32:36;;;;;;;6.78;3.35;;;11.90;99.90;;;;;;5033283;28;20010;-67
2022/07/12 00:35:05;;;;;;;8.35;3.60;;;12.00;99.90;;;;;;5036006;28;20022;-66
2022/07/12 00:37:33;;;;;;;8.18;4.55;;;11.90;99.90;;;;;;5024510;28;20023;-67
2022/07/12 00:40:00;;;;;;;8.52;4.30;;;12.00;99.90;;;;;;5018335;28;20037;-66
2022/07/12 00:42:28;;;;;;;15.82;4.35;;;12.00;99.90;;;;;;5018473;28;21064;-66
2022/07/12 00:44:55;;;;;;;11.07;4.93;;;12.00;99.90;;;;;;5018203;28;20006;-67
2022/07/12 00:47:40;;;;;;;6.85;4.65;;;11.90;99.90;;;;;;5018750;28;20046;-67
2022/07/12 00:50:10;;;;;;;8.68;5.25;;;11.80;99.90;;;;;;5018104;28;20077;-65
2022/07/12 00:52:39;;;;;;;9.50;4.75;;;11.80;99.90;;;;;;5018472;28;20078;-66
2022/07/12 00:55:08;;;;;;;7.63;5.05;;;12.10;99.90;;;;;;5022597;28;20021;-66
2022/07/12 00:57:36;;;;;;;12.15;4.30;;;12.10;99.90;;;;;;5036889;28;20014;-67
2022/07/12 01:00:07;;;;;;;9.75;5.70;;;12.20;99.90;;;;;;5030617;28;20013;-68
2022/07/12 01:02:36;;;;;;;8.52;4.68;;;12.30;99.90;;;;;;5029400;28;20029;-66
2022/07/12 01:05:06;;;;;;;12.32;6.90;;;12.50;99.90;;;;;;5033085;28;20045;-68
2022/07/12 01:07:34;;;;;;;8.95;5.93;;;12.40;99.90;;;;;;5021044;28;20057;-67
2022/07/12 01:10:03;;;;;;;13.60;5.80;;;12.40;99.90;;;;;;5032558;28;20018;-66
2022/07/12 01:12:31;;;;;;;12.13;5.95;;;12.40;99.90;;;;;;5039123;28;20125;-67
2022/07/12 01:14:59;;;;;;;10.25;5.90;;;12.40;99.90;;;;;;5029614;28;20086;-67
2022/07/12 01:17:27;;;;;;;12.02;6.15;;;12.50;99.90;;;;;;5039594;28;20017;-67
2022/07/12 01:19:57;;;;;;;10.90;7.05;;;12.60;99.90;;;;;;5040855;28;20113;-67
2022/07/12 01:22:31;;;;;;;9.52;6.47;;;12.70;99.90;;;;;;5029549;28;20038;-68
2022/07/12 01:25:01;;;;;;;10.73;5.78;;;12.70;99.90;;;;;;5025842;28;20018;-67
2022/07/12 01:27:28;;;;;;;14.23;6.97;;;12.70;99.90;;;;;;5029006;28;20092;-67
2022/07/12 01:29:56;;;;;;;11.15;6.55;;;12.90;99.90;;;;;;5021464;28;20002;-67
2022/07/12 01:32:26;;;;;;;9.20;5.78;;;13.00;99.90;;;;;;5025040;28;20034;-67
2022/07/12 01:35:05;;;;;;;12.35;6.20;;;13.30;99.90;;;;;;5040884;28;20013;-67
2022/07/12 01:37:37;;;;;;;9.82;5.50;;;13.30;99.90;;;;;;5040024;28;20006;-67
2022/07/12 01:40:06;;;;;;;9.75;5.93;;;13.20;99.90;;;;;;5036312;28;20034;-67
2022/07/12 01:42:34;;;;;;;11.40;5.85;;;13.50;99.90;;;;;;5030086;28;20073;-67
2022/07/12 01:45:01;;;;;;;10.10;6.05;;;13.60;99.90;;;;;;5027653;28;20033;-66
2022/07/12 01:47:31;;;;;;;10.75;6.68;;;13.60;99.90;;;;;;5026616;28;20046;-68
2022/07/12 01:49:59;;;;;;;11.68;6.78;;;13.40;99.90;;;;;;5035042;28;20010;-68
2022/07/12 01:52:27;;;;;;;13.30;6.88;;;13.40;99.90;;;;;;5027698;28;20049;-68
2022/07/12 01:54:58;;;;;;;10.20;7.47;;;13.40;99.90;;;;;;5030661;28;20038;-68
2022/07/12 01:57:26;;;;;;;13.05;6.60;;;13.60;99.90;;;;;;5035173;28;20030;-66
2022/07/12 01:59:54;;;;;;;13.95;6.82;;;13.70;99.90;;;;;;5029347;28;20007;-67
2022/07/12 02:02:21;;;;;;;9.52;5.85;;;14.10;99.90;;;;;;5029032;28;20026;-68
2022/07/12 02:04:49;;;;;;;8.40;5.40;;;14.10;99.90;;;;;;5020135;28;20018;-67
2022/07/12 02:07:16;;;;;;;13.65;6.55;;;14.00;99.90;;;;;;5032868;28;20090;-66
2022/07/12 02:09:43;;;;;;;10.55;5.53;;;14.20;99.90;;;;;;5024970;28;20051;-68
2022/07/12 02:12:11;;;;;;;12.57;6.40;;;14.70;99.90;;;;;;5024660;28;20022;-68
2022/07/12 02:14:38;;;;;;;15.45;7.25;;;14.60;99.90;;;;;;5024184;28;20056;-68
2022/07/12 02:17:05;;;;;;;9.40;6.05;;;14.70;99.90;;;;;;5034647;28;20020;-66
2022/07/12 02:19:32;;;;;;;9.73;5.80;;;15.10;99.90;;;;;;5032242;28;20040;-66
2022/07/12 02:22:00;;;;;;;11.63;4.78;;;15.60;99.90;;;;;;5038110;28;20010;-66
2022/07/12 02:24:27;;;;;;;11.02;5.65;;;15.80;99.90;;;;;;5040339;28;20026;-66
2022/07/12 02:26:54;;;;;;;9.07;4.93;;;15.70;99.90;;;;;;5038401;28;20044;-67
2022/07/12 02:29:21;;;;;;;9.48;5.25;;;15.70;99.90;;;;;;5040261;28;20030;-66
2022/07/12 02:31:49;;;;;;;10.30;4.20;;;16.40;99.90;;;;;;5038560;28;20066;-66
2022/07/12 02:34:16;;;;;;;7.18;4.68;;;17.00;99.90;;;;;;5040012;28;20033;-66
2022/07/12 02:36:44;;;;;;;6.20;3.88;;;17.60;99.90;;;;;;5035247;28;20046;-66
2022/07/12 02:39:11;;;;;;;7.00;3.55;;;17.80;99.90;;;;;;5019928;28;20050;-66
2022/07/12 02:41:38;;;;;;;6.78;2.70;;;18.40;99.90;;;;;;5026402;28;20025;-66
2022/07/12 02:44:05;;;;;;;7.50;3.08;;;17.40;99.90;;;;;;5032431;28;20029;-67
2022/07/12 02:46:33;;;;;;;6.97;3.33;;;17.90;99.90;;;;;;5035850;28;20501;-67
2022/07/12 02:49:01;;;;;;;7.32;2.80;;;18.80;99.90;;;;;;5033190;28;20022;-67
2022/07/12 02:51:28;;;;;;;6.45;2.60;;;17.50;99.90;;;;;;5036269;28;20022;-67
2022/07/12 02:53:55;;;;;;;6.40;3.20;;;17.00;99.90;;;;;;5023309;28;20038;-67
2022/07/12 02:56:22;;;;;;;5.78;2.70;;;16.10;99.90;;;;;;5019023;28;20041;-67
2022/07/12 02:58:50;;;;;;;5.95;2.08;;;16.30;99.90;;;;;;5021017;28;20038;-67
2022/07/12 03:01:17;;;;;;;4.78;2.25;;;16.40;99.90;;;;;;5020009;28;20006;-67
2022/07/12 03:03:44;;;;;;;6.95;2.30;;;17.00;99.90;;;;;;5039344;28;20022;-67
2022/07/12 03:06:12;;;;;;;4.25;1.65;;;18.20;99.90;;;;;;5038492;28;20021;-67
2022/07/12 03:08:40;;;;;;;5.63;2.40;;;17.30;99.90;;;;;;5039222;28;20022;-67
2022/07/12 03:11:07;;;;;;;3.22;1.30;;;17.60;99.90;;;;;;5030089;28;20022;-67
2022/07/12 03:13:34;;;;;;;3.90;1.95;;;16.80;99.90;;;;;;5038499;28;20025;-66
2022/07/12 03:16:01;;;;;;;6.28;2.33;;;16.20;99.90;;;;;;5038860;28;20025;-66
2022/07/12 03:18:29;;;;;;;7.97;1.70;;;16.50;99.90;;;;;;5019140;28;20090;-65
2022/07/12 03:20:56;;;;;;;4.72;1.63;;;17.20;99.90;;;;;;5018705;28;20046;-66
2022/07/12 03:23:23;;;;;;;5.80;1.83;;;16.50;99.90;;;;;;5020383;28;20035;-66
2022/07/12 03:25:50;;;;;;;10.18;3.03;;;15.80;99.90;;;;;;5019386;28;20034;-66
2022/07/12 03:28:18;;;;;;;5.22;1.92;;;15.50;99.90;;;;;;5019834;28;20037;-66
2022/07/12 03:30:45;;;;;;;6.60;1.65;;;15.30;99.90;;;;;;5019427;28;20094;-66
2022/07/12 03:33:12;;;;;;;2.50;1.50;;;15.30;99.90;;;;;;5020378;28;20049;-66
2022/07/12 03:35:40;;;;;;;3.83;1.42;;;15.50;99.90;;;;;;5019431;28;20038;-66
2022/07/12 03:38:07;;;;;;;5.43;1.60;;;15.50;99.90;;;;;;5036361;28;20093;-66
2022/07/12 03:40:34;;;;;;;3.78;1.42;;;15.60;99.90;;;;;;5038810;28;20014;-66
2022/07/12 03:43:01;;;;;;;7.53;2.22;;;15.30;99.90;;;;;;5037258;28;20042;-67
2022/07/12 03:45:29;;;;;;;5.53;2.30;;;15.50;99.90;;;;;;5038859;28;20287;-67
2022/07/12 03:47:56;;;;;;;3.83;2.30;;;15.90;99.90;;;;;;5028190;28;20041;-67
2022/07/12 03:50:23;;;;;;;5.50;2.00;;;15.70;99.90;;;;;;5021035;28;20018;-68
2022/07/12 03:52:54;;;;;;;3.47;1.60;;;15.60;99.90;;;;;;5019908;28;20034;-66
2022/07/12 03:55:21;;;;;;;3.35;1.63;;;15.90;99.90;;;;;;5018689;28;20026;-66
2022/07/12 03:57:49;;;;;;;9.07;1.95;;;15.70;99.90;;;;;;5018772;28;20026;-66
2022/07/12 04:00:17;;;;;;;3.85;1.17;;;16.10;99.90;;;;;;5035312;28;20022;-67
2022/07/12 04:02:44;;;;;;;3.25;1.58;;;16.20;99.90;;;;;;5023104;28;20036;-66
2022/07/12 04:05:12;;;;;;;5.82;1.50;;;16.20;99.90;;;;;;5018578;28;20042;-66
2022/07/12 04:07:40;;;;;;;6.68;2.22;;;16.50;99.90;;;;;;5018419;28;20027;-66
2022/07/12 04:10:08;;;;;;;5.60;2.47;;;15.90;99.90;;;;;;5018578;28;20041;-66
2022/07/12 04:12:35;;;;;;;3.55;1.80;;;16.00;99.90;;;;;;5019576;28;20033;-66
2022/07/12 04:15:04;;;;;;;4.88;1.65;;;16.00;99.90;;;;;;5018290;28;20030;-66
2022/07/12 04:17:32;;;;;;;3.13;1.10;;;15.80;99.90;;;;;;5025983;28;20022;-66
2022/07/12 04:19:59;;;;;;;3.83;1.70;;;15.80;99.90;;;;;;5021639;28;20010;-66
2022/07/12 04:22:26;;;;;;;1.75;0.88;;;15.50;99.90;;;;;;5028746;28;20025;-66
2022/07/12 04:24:53;;;;;;;3.75;0.90;;;15.30;99.90;;;;;;5025431;28;20014;-66
2022/07/12 04:27:21;;;;;;;1.75;0.80;;;15.30;99.90;;;;;;5027232;28;20045;-66
2022/07/12 04:29:48;;;;;;;1.95;1.10;;;15.40;99.90;;;;;;5038323;28;20014;-66
2022/07/12 04:32:15;;;;;;;3.05;1.27;;;15.40;99.90;;;;;;5028333;28;20018;-66
2022/07/12 04:34:42;;;;;;;2.53;1.00;;;15.50;99.90;;;;;;5018173;28;20022;-66
2022/07/12 04:37:10;;;;;;;2.80;0.80;;;15.60;99.90;;;;;;5026027;28;20014;-67
2022/07/12 04:39:37;;;;;;;3.40;0.65;;;15.40;99.90;;;;;;5018228;28;20014;-66
2022/07/12 04:42:05;;;;;;;1.88;0.70;;;15.30;99.90;;;;;;5027063;28;20010;-66
2022/07/12 04:44:32;;;;;;;3.15;1.00;;;15.20;99.90;;;;;;5036984;28;20022;-67
2022/07/12 04:47:00;;;;;;;4.07;0.77;;;15.10;99.90;;;;;;5031215;28;20062;-66
2022/07/12 04:49:27;;;;;;;2.28;0.68;;;15.10;99.90;;;;;;5022214;28;20014;-66
2022/07/12 04:51:54;;;;;;;1.02;0.50;;;15.20;99.90;;;;;;5022149;28;20078;-66
2022/07/12 04:54:21;;;;;;;6.40;1.35;;;15.20;99.90;;;;;;5022126;28;20066;-66
2022/07/12 04:56:48;;;;;;;1.00;0.47;;;15.10;99.90;;;;;;5027404;28;20010;-66
2022/07/12 04:59:16;;;;;;;3.20;0.68;;;15.20;99.90;;;;;;5041675;28;20022;-66
2022/07/12 05:01:45;;;;;;;1.98;0.70;;;15.20;99.90;;;;;;5036524;28;20045;-66
2022/07/12 05:04:12;;;;;;;4.55;0.65;;;15.50;99.90;;;;;;5027566;28;20053;-66
2022/07/12 05:06:39;;;;;;;1.83;0.70;;;15.60;99.90;;;;;;5032446;28;20042;-67
2022/07/12 05:09:07;;;;;;;4.40;0.90;;;15.70;99.90;;;;;;5034303;28;20069;-66
2022/07/12 05:11:34;;;;;;;2.03;0.73;;;15.70;99.90;;;;;;5035347;28;20081;-66
2022/07/12 05:14:01;;;;;;;3.03;0.70;;;15.50;99.90;;;;;;5029464;28;20031;-67
2022/07/12 05:16:29;;;;;;;3.28;0.90;;;15.50;99.90;;;;;;5031044;28;20034;-67
2022/07/12 05:18:57;;;;;;;1.98;0.80;;;15.30;99.90;;;;;;5028764;28;20017;-66
2022/07/12 05:21:24;;;;;;;3.60;0.60;;;15.10;99.90;;;;;;5027270;28;20045;-66
2022/07/12 05:23:52;;;;;;;2.53;0.60;;;15.10;99.90;;;;;;5031895;28;20030;-67
2022/07/12 05:26:20;;;;;;;2.35;1.00;;;15.20;99.90;;;;;;5025700;28;20034;-67
2022/07/12 05:28:47;;;;;;;2.10;0.60;;;15.20;99.90;;;;;;5038950;28;20045;-67
2022/07/12 05:31:15;;;;;;;5.47;1.00;;;15.20;99.90;;;;;;5030313;28;20034;-68
2022/07/12 05:33:43;;;;;;;3.17;0.85;;;15.00;99.90;;;;;;5025449;28;20045;-67
2022/07/12 05:36:10;;;;;;;3.03;0.90;;;14.80;99.90;;;;;;5024174;28;20037;-67
2022/07/12 05:38:38;;;;;;;2.05;0.77;;;14.80;99.90;;;;;;5035162;28;20037;-67
2022/07/12 05:41:05;;;;;;;2.63;0.93;;;14.80;99.90;;;;;;5038657;28;20024;-67
2022/07/12 05:43:33;;;;;;;1.90;0.70;;;14.70;99.90;;;;;;5039848;28;20022;-67
2022/07/12 05:46:00;;;;;;;2.35;0.80;;;14.60;99.90;;;;;;5031000;28;20022;-67
2022/07/12 05:48:28;;;;;;;2.03;0.68;;;14.50;99.90;;;;;;5031572;28;20048;-67
2022/07/12 05:53:21;;;;;;;1.88;0.65;;;14.50;99.90;;;;;;5035570;28;20026;-67
2022/07/12 05:53:43;;;;;;;2.50;1.00;;;14.50;99.90;;;;;;5035880;28;20026;-68
2022/07/12 05:56:10;;;;;;;2.10;0.73;;;14.50;99.90;;;;;;5036965;28;20021;-67
2022/07/12 05:58:38;;;;;;;3.08;0.70;;;14.40;99.90;;;;;;5033020;28;20060;-66
2022/07/12 06:01:06;;;;;;;1.95;0.70;;;14.30;99.90;;;;;;5033906;28;20030;-66
2022/07/12 06:03:34;;;;;;;3.15;0.85;;;14.20;99.90;;;;;;5027898;28;20037;-66
2022/07/12 06:06:02;;;;;;;2.75;0.60;;;14.20;99.90;;;;;;5037406;28;20034;-66
2022/07/12 06:08:29;;;;;;;1.42;0.68;;;14.10;99.90;;;;;;5036029;28;20056;-66
2022/07/12 06:10:57;;;;;;;2.33;0.70;;;14.00;99.90;;;;;;5033883;28;20034;-66
2022/07/12 06:13:25;;;;;;;4.55;1.00;;;13.90;99.90;;;;;;5033419;28;20033;-66
2022/07/12 06:15:55;;;;;;;3.30;0.70;;;14.00;99.90;;;;;;5038311;28;20025;-66
2022/07/12 06:18:28;;;;;;;3.13;0.63;;;13.80;99.90;;;;;;5030593;28;20042;-66
2022/07/12 06:20:55;;;;;;;2.15;1.02;;;13.80;99.90;;;;;;5033383;28;20014;-67
2022/07/12 06:23:23;;;;;;;3.45;1.25;;;13.80;99.90;;;;;;5021223;28;20026;-67
2022/07/12 06:25:52;;;;;;;2.08;1.05;;;13.80;99.90;;;;;;5036774;28;20010;-66
2022/07/12 06:28:20;;;;;;;3.08;0.88;;;13.70;99.90;;;;;;5030643;28;20057;-67
2022/07/12 06:30:53;;;;;;;2.25;0.60;;;13.70;99.90;;;;;;5034548;28;20018;-67
2022/07/12 06:33:22;;;;;;;3.83;0.93;;;13.60;99.90;;;;;;5031640;28;20041;-65
2022/07/12 06:35:51;;;;;;;1.65;0.70;;;13.50;99.90;;;;;;5032341;28;20034;-66
2022/07/12 06:38:19;;;;;;;2.90;0.70;;;13.40;99.90;;;;;;5029414;28;20056;-66
2022/07/12 06:40:47;;;;;;;2.72;1.00;;;13.30;99.90;;;;;;5035867;28;20060;-66
2022/07/12 06:43:15;;;;;;;4.10;0.80;;;13.30;99.90;;;;;;5032631;28;20026;-66
2022/07/12 06:45:44;;;;;;;2.92;1.10;;;13.30;99.90;;;;;;5035455;28;20034;-66
2022/07/12 06:48:12;;;;;;;6.40;1.13;;;13.20;99.90;;;;;;5036329;28;20110;-66
2022/07/12 06:50:42;;;;;;;4.93;1.00;;;13.10;99.90;;;;;;5036576;28;20698;-66
2022/07/12 06:53:14;;;;;;;4.45;1.02;;;13.10;99.90;;;;;;5022407;28;20031;-66
2022/07/12 06:55:44;;;;;;;4.53;1.08;;;13.10;99.90;;;;;;5033368;28;20033;-66
2022/07/12 06:58:12;;;;;;;2.40;0.80;;;13.10;99.90;;;;;;5021583;28;20022;-66
2022/07/12 07:00:42;;;;;;;5.03;1.80;;;13.00;99.90;;;;;;5038343;28;20044;-66
2022/07/12 07:03:10;;;;;;;2.50;0.88;;;13.10;99.90;;;;;;5036065;28;20009;-66
2022/07/12 07:05:38;;;;;;;3.65;0.88;;;13.10;99.90;;;;;;5038298;28;20012;-66
2022/07/12 07:08:06;;;;;;;1.70;0.85;;;13.10;99.90;;;;;;5027668;28;20022;-66
2022/07/12 07:10:34;;;;;;;3.53;1.10;;;13.00;99.90;;;;;;5019480;28;20015;-67
2022/07/12 07:13:01;;;;;;;2.65;0.98;;;12.90;99.90;;;;;;5033257;28;20021;-67
2022/07/12 07:15:29;;;;;;;5.07;0.85;;;13.00;99.90;;;;;;5030342;28;20052;-68
2022/07/12 07:17:56;;;;;;;6.22;1.10;;;13.00;99.90;;;;;;5031100;28;20002;-66
2022/07/12 07:20:24;;;;;;;4.88;1.02;;;12.90;99.90;;;;;;5033376;28;20033;-66
2022/07/12 07:22:52;;;;;;;3.45;0.93;;;12.80;99.90;;;;;;5036201;28;20046;-66
2022/07/12 07:25:20;;;;;;;2.00;0.82;;;12.80;99.90;;;;;;5029397;28;20017;-66
2022/07/12 07:27:48;;;;;;;6.75;1.30;;;12.80;99.90;;;;;;5023791;28;20097;-66
2022/07/12 07:33:01;;;;;;;2.53;1.30;;;12.70;99.90;;;;;;5029925;28;20086;-66
2022/07/12 07:35:28;;;;;;;1.92;1.10;;;12.60;99.90;;;;;;5033243;28;20033;-66
2022/07/12 07:37:55;;;;;;;2.95;0.82;;;12.60;99.90;;;;;;5032183;28;20018;-66
2022/07/12 07:40:22;;;;;;;2.47;1.27;;;12.60;99.90;;;;;;5038007;28;20026;-66
2022/07/12 07:42:50;;;;;;;2.35;1.15;;;12.50;99.90;;;;;;5023675;28;20021;-65
2022/07/12 07:45:18;;;;;;;4.03;1.40;;;12.50;99.90;;;;;;5030931;28;20022;-65
2022/07/12 07:47:50;;;;;;;2.28;1.15;;;12.40;99.90;;;;;;5036008;28;20122;-65
2022/07/12 07:50:18;;;;;;;4.00;1.13;;;12.40;99.90;;;;;;5036707;28;20041;-66
2022/07/12 07:52:51;;;;;;;2.50;1.35;;;12.40;99.90;;;;;;5035502;28;20042;-65
2022/07/12 07:55:19;;;;;;;6.20;1.40;;;12.40;99.90;;;;;;5028543;28;20035;-65
2022/07/12 07:57:47;;;;;;;3.47;1.25;;;12.40;99.90;;;;;;5028206;28;20029;-67
2022/07/12 08:00:16;;;;;;;4.63;1.58;;;12.30;99.90;;;;;;5037019;28;20018;-67
2022/07/12 08:02:45;;;;;;;3.83;1.52;;;12.30;99.90;;;;;;5019946;28;20119;-68
2022/07/12 08:05:13;;;;;;;5.20;1.40;;;12.30;99.90;;;;;;5017866;28;20041;-68
2022/07/12 08:07:41;;;;;;;3.45;1.60;;;12.20;99.90;;;;;;5018009;28;20046;-68
2022/07/12 08:10:09;;;;;;;5.40;1.70;;;12.20;99.90;;;;;;5017907;28;20026;-68
2022/07/12 08:12:41;;;;;;;4.70;1.70;;;12.20;99.90;;;;;;5019208;28;20053;-68
2022/07/12 08:15:11;;;;;;;4.32;1.67;;;12.20;99.90;;;;;;5037699;28;20028;-68
2022/07/12 08:17:44;;;;;;;5.53;1.35;;;12.20;99.90;;;;;;5034192;28;20007;-69
2022/07/12 08:20:17;;;;;;;3.13;1.58;;;12.20;99.90;;;;;;5016803;28;20019;-69
2022/07/12 08:22:46;;;;;;;4.88;1.42;;;12.10;99.90;;;;;;5023109;28;20094;-68
2022/07/12 08:25:13;;;;;;;4.07;1.55;;;12.10;99.90;;;;;;5022769;28;20023;-68
2022/07/12 08:27:41;;;;;;;3.20;1.75;;;12.10;99.90;;;;;;5024476;28;20007;-68
2022/07/12 08:30:09;;;;;;;6.22;1.80;;;12.10;99.90;;;;;;5017918;28;20021;-69
2022/07/12 08:32:36;;;;;;;4.80;2.22;;;12.10;99.90;;;;;;5018529;28;20014;-68
2022/07/12 08:35:03;;;;;;;5.75;2.88;;;12.10;99.90;;;;;;5018063;28;20021;-68
2022/07/12 08:37:31;;;;;;;7.57;3.85;;;12.10;99.90;;;;;;5018534;28;20019;-68
2022/07/12 08:39:58;;;;;;;11.30;4.70;;;12.10;99.90;;;;;;5023562;28;20006;-67
2022/07/12 08:42:25;;;;;;;8.68;4.30;;;12.10;99.90;;;;;;5030243;28;20037;-68
2022/07/12 08:44:59;;;;;;;10.65;5.05;;;12.20;99.90;;;;;;5030055;28;20006;-68
2022/07/12 08:47:26;;;;;;;17.30;4.90;;;12.20;99.90;;;;;;5027829;28;20062;-68
2022/07/12 08:50:19;;;;;;;14.10;5.20;;;12.30;99.90;;;;;;5016653;28;20033;-70
2022/07/12 08:52:52;;;;;;;11.38;3.78;;;12.30;99.90;;;;;;5019678;28;20026;-69
2022/07/12 08:55:28;;;;;;;7.85;3.90;;;12.30;99.90;;;;;;5025734;28;20146;-69
2022/07/12 08:58:01;;;;;;;8.48;4.00;;;12.30;99.90;;;;;;5022799;28;20026;-69
2022/07/12 09:00:30;;;;;;;9.68;4.07;;;12.30;99.90;;;;;;5021030;28;20077;-69
2022/07/12 09:02:59;;;;;;;6.78;4.05;;;12.30;99.90;;;;;;5024773;28;20029;-69
2022/07/12 09:05:29;;;;;;;11.32;5.13;;;12.40;99.90;;;;;;5021285;28;20090;-68
2022/07/12 09:08:10;;;;;;;13.52;5.28;;;12.50;99.90;;;;;;5024980;28;20030;-70
2022/07/12 09:11:02;;;;;;;8.65;4.95;;;12.60;99.90;;;;;;5028980;28;20080;-70
2022/07/12 09:13:50;;;;;;;11.18;4.07;;;12.60;99.90;;;;;;5022255;28;20014;-69
2022/07/12 09:16:27;;;;;;;9.00;3.60;;;12.60;99.90;;;;;;5023035;28;20029;-69
2022/07/12 09:19:19;;;;;;;7.57;3.20;;;12.60;99.90;;;;;;5013951;28;20073;-70
2022/07/12 09:21:54;;;;;;;4.90;3.13;;;12.50;99.90;;;;;;5018033;28;20073;-69
2022/07/12 09:24:28;;;;;;;7.95;3.72;;;12.50;99.90;;;;;;5003332;28;20090;-70
2022/07/12 09:27:02;;;;;;;10.32;3.55;;;12.40;99.90;;;;;;5019346;28;20034;-69
2022/07/12 09:29:30;;;;;;;7.22;3.17;;;12.40;99.90;;;;;;5004390;28;20029;-70
2022/07/12 09:37:28;;;;;;;6.55;2.70;;;12.40;99.90;;;;;;5021206;28;20037;-69
2022/07/12 09:39:56;;;;;;;3.78;2.55;;;12.40;99.90;;;;;;5029490;28;20034;-68
2022/07/12 09:42:23;;;;;;;5.10;2.60;;;12.50;99.90;;;;;;5023358;28;20053;-68
2022/07/12 09:44:52;;;;;;;6.90;3.55;;;12.40;99.90;;;;;;5031737;28;20021;-69
2022/07/12 09:47:20;;;;;;;5.15;2.60;;;12.40;99.90;;;;;;5028747;28;20037;-68
2022/07/12 09:49:47;;;;;;;8.15;3.13;;;12.40;99.90;;;;;;5039631;28;20022;-69
2022/07/12 09:52:21;;;;;;;12.02;3.90;;;12.40;99.90;;;;;;5031246;28;20037;-66
2022/07/12 09:54:52;;;;;;;7.93;3.05;;;12.40;99.90;;;;;;5034002;28;20054;-67
2022/07/12 09:57:29;;;;;;;11.23;3.33;;;12.40;99.90;;;;;;5037011;28;20044;-68
2022/07/12 09:59:58;;;;;;;5.20;2.97;;;12.40;99.90;;;;;;5030238;28;20014;-67
2022/07/12 10:02:26;;;;;;;9.52;3.20;;;12.40;99.90;;;;;;5039311;28;20069;-67
2022/07/12 10:04:54;;;;;;;10.90;4.13;;;12.40;99.90;;;;;;5036702;28;20018;-67
2022/07/12 10:07:22;;;;;;;9.13;3.83;;;12.40;99.90;;;;;;5034662;28;20041;-67
2022/07/12 10:09:54;;;;;;;7.13;4.00;;;12.40;99.90;;;;;;5027348;28;19998;-67
2022/07/12 10:12:23;;;;;;;9.23;4.13;;;12.40;99.90;;;;;;5038656;28;20033;-68
2022/07/12 10:15:01;;;;;;;7.00;3.45;;;12.40;99.90;;;;;;5033851;28;20026;-68
2022/07/12 10:17:29;;;;;;;6.68;3.33;;;12.40;99.90;;;;;;5037082;28;20033;-68
2022/07/12 10:20:32;;;;;;;7.47;3.75;;;12.40;99.90;;;;;;5037524;28;20034;-68
2022/07/12 10:23:17;;;;;;;8.77;3.95;;;12.40;99.90;;;;;;4957617;29;20035;-68
2022/07/12 10:25:46;;;;;;;7.45;4.18;;;12.40;99.90;;;;;;5029487;28;20052;-68
2022/07/12 10:28:13;;;;;;;6.68;4.03;;;12.40;99.90;;;;;;5030546;28;20022;-68
2022/07/12 10:30:48;;;;;;;9.63;4.18;;;12.30;99.90;;;;;;5027316;28;20010;-68
2022/07/12 10:33:24;;;;;;;5.70;3.13;;;12.20;99.90;;;;;;5036253;28;20085;-69
2022/07/12 10:36:05;;;;;;;7.88;4.57;;;12.20;99.90;;;;;;5034847;28;20054;-70
2022/07/12 10:38:34;;;;;;;9.10;4.28;;;12.20;99.90;;;;;;5033083;28;20040;-67
2022/07/12 10:41:24;;;;;;;8.00;3.92;;;12.20;99.90;;;;;;5022505;28;20018;-67
2022/07/12 10:44:05;;;;;;;7.93;4.28;;;12.20;99.90;;;;;;5026322;28;20097;-68
2022/07/12 10:46:36;;;;;;;11.32;4.57;;;12.20;99.90;;;;;;5037166;28;20058;-68
2022/07/12 10:49:34;;;;;;;7.45;4.47;;;12.20;99.90;;;;;;5028965;28;20038;-67
2022/07/12 10:52:25;;;;;;;9.90;4.63;;;12.20;99.90;;;;;;5024743;28;20038;-67
2022/07/12 10:54:59;;;;;;;7.47;4.60;;;12.10;99.90;;;;;;5029431;28;20056;-68
2022/07/12 10:57:49;;;;;;;9.23;4.93;;;12.10;99.90;;;;;;5037889;28;20013;-68
2022/07/12 11:00:17;;;;;;;9.68;4.85;;;12.00;99.90;;;;;;5029967;28;20026;-68
2022/07/12 11:02:45;;;;;;;7.78;5.35;;;12.00;99.90;;;;;;5032703;28;20033;-68
2022/07/12 11:05:12;;;;;;;9.68;5.10;;;11.90;99.90;;;;;;5031121;28;20029;-68
2022/07/12 11:07:40;;;;;;;8.55;4.32;;;11.90;99.90;;;;;;5032808;28;20413;-68
2022/07/12 11:10:11;;;;;;;7.47;4.80;;;11.90;99.90;;;;;;5033599;28;20034;-69
2022/07/12 11:12:38;;;;;;;11.88;5.13;;;11.90;99.90;;;;;;5030337;28;20070;-68
2022/07/12 11:15:06;;;;;;;7.35;4.53;;;11.90;99.90;;;;;;5030478;28;20022;-68
2022/07/12 11:17:33;;;;;;;12.70;4.72;;;11.80;99.90;;;;;;5027927;28;20033;-68
2022/07/12 11:20:14;;;;;;;8.68;4.45;;;11.80;99.90;;;;;;5021613;28;20022;-67
2022/07/12 11:22:43;;;;;;;6.80;4.72;;;11.80;99.90;;;;;;5034730;28;20033;-67
2022/07/12 11:25:13;;;;;;;11.50;4.72;;;11.80;99.90;;;;;;5033624;28;20018;-68
2022/07/12 11:27:41;;;;;;;11.05;5.55;;;11.80;99.90;;;;;;5035877;28;20041;-67
2022/07/12 11:30:13;;;;;;;9.32;4.97;;;11.80;99.90;;;;;;5035314;28;20052;-67
2022/07/12 11:32:47;;;;;;;9.15;4.50;;;11.80;99.90;;;;;;5027848;28;20033;-69
2022/07/12 11:35:21;;;;;;;8.77;4.87;;;11.80;99.90;;;;;;5035735;28;20044;-68
2022/07/12 11:37:57;;;;;;;;;;;11.80;99.90;;;;;;5032747;28;20022;-69
2022/07/12 11:40:31;;;;;;;8.85;4.90;;;11.70;99.90;;;;;;5036267;28;19920;-68
2022/07/12 11:43:00;;;;;;;9.32;5.60;;;11.70;99.90;;;;;;5037567;28;20026;-68
2022/07/12 11:45:33;;;;;;;8.30;5.53;;;11.70;99.90;;;;;;5023018;28;20033;-69
2022/07/12 11:48:05;;;;;;;9.77;5.82;;;11.60;99.90;;;;;;5021449;28;20056;-68
2022/07/12 11:50:34;;;;;;;8.85;5.70;;;11.60;99.90;;;;;;5024660;28;20225;-68
2022/07/12 11:53:01;;;;;;;10.40;6.18;;;11.60;99.90;;;;;;5022396;28;20022;-68
2022/07/12 11:55:29;;;;;;;15.40;5.60;;;11.60;99.90;;;;;;5025456;28;20014;-68
2022/07/12 11:58:06;;;;;;;12.23;5.90;;;11.60;99.90;;;;;;5025782;28;20113;-68
2022/07/12 12:00:33;;;;;;;14.10;6.85;;;11.70;99.90;;;;;;5019451;28;20028;-69
2022/07/12 12:03:01;;;;;;;7.60;6.00;;;11.60;99.90;;;;;;5026686;28;20093;-66
2022/07/12 12:05:28;;;;;;;10.13;5.78;;;11.60;99.90;;;;;;5032385;28;20085;-68
2022/07/12 12:07:55;;;;;;;9.88;5.85;;;11.50;99.90;;;;;;5032473;28;20010;-68
2022/07/12 12:10:23;;;;;;;10.07;5.82;;;11.50;99.90;;;;;;5032482;28;20033;-67
2022/07/12 12:12:59;;;;;;;9.32;5.72;;;11.50;99.90;;;;;;5027135;28;20030;-67
2022/07/12 12:15:33;;;;;;;8.52;5.95;;;11.50;99.90;;;;;;5028441;28;20014;-67
2022/07/12 12:18:04;;;;;;;10.30;6.07;;;11.50;99.90;;;;;;5032616;28;20040;-68
2022/07/12 12:20:33;;;;;;;10.77;6.03;;;11.40;99.90;;;;;;5036832;28;20036;-68
2022/07/12 12:23:04;;;;;;;11.13;5.35;;;11.50;99.90;;;;;;5029162;28;20030;-68
2022/07/12 12:25:33;;;;;;;7.93;5.70;;;11.40;99.90;;;;;;5030196;28;20076;-69
2022/07/12 12:28:03;;;;;;;7.05;5.20;;;11.40;99.90;;;;;;5029777;28;20520;-67
2022/07/12 12:30:32;;;;;;;8.77;4.50;;;11.20;99.90;;;;;;5030266;28;20030;-67
2022/07/12 12:33:02;;;;;;;9.38;4.80;;;11.20;99.90;;;;;;5036482;28;20021;-68
2022/07/12 12:35:39;;;;;;;7.18;4.75;;;11.30;99.90;;;;;;5032668;28;20010;-67
2022/07/12 12:38:16;;;;;;;9.73;4.90;;;11.20;99.90;;;;;;5032089;28;20006;-67
2022/07/12 12:40:53;;;;;;;15.52;5.70;;;11.20;99.90;;;;;;5033638;28;20044;-68
2022/07/12 12:43:21;;;;;;;9.02;4.45;;;11.30;99.90;;;;;;5036098;28;20223;-68
2022/07/12 12:45:55;;;;;;;7.53;4.53;;;11.20;99.90;;;;;;5034112;28;20028;-68
2022/07/12 12:48:24;;;;;;;6.75;4.20;;;11.20;99.90;;;;;;5028566;28;20049;-67
2022/07/12 12:50:53;;;;;;;7.32;5.13;;;11.20;99.90;;;;;;5025162;28;20058;-66
2022/07/12 12:53:25;;;;;;;8.80;4.65;;;11.10;99.90;;;;;;5029806;28;20018;-67
2022/07/12 12:55:54;;;;;;;9.23;4.68;;;11.10;99.90;;;;;;5026913;28;20040;-67
2022/07/12 12:58:24;;;;;;;9.43;5.05;;;11.10;99.90;;;;;;5026694;28;20027;-68
2022/07/12 13:00:53;;;;;;;5.78;4.35;;;11.00;99.90;;;;;;5033426;28;20026;-67
2022/07/12 13:03:23;;;;;;;6.43;3.80;;;11.10;99.90;;;;;;5034960;28;20090;-67
2022/07/12 13:05:51;;;;;;;7.65;4.13;;;11.10;99.90;;;;;;5031527;28;20014;-67